sensor_id;sensor_type;location;lat;lon;timestamp;pressure;altitude;pressure_sealevel;temperature
67515;BMP280;60646;55.802;37.032;2023-12-07T00:00:07;101502.72;;;-1.71
67515;BMP280;60646;55.802;37.032;2023-12-07T00:02:34;101500.03;;;-1.74
67515;BMP280;60646;55.802;37.032;2023-12-07T00:04:59;101478.03;;;-1.89
67515;BMP280;60646;55.802;37.032;2023-12-07T00:07:25;101509.06;;;-1.72
67515;BMP280;60646;55.802;37.032;2023-12-07T00:09:51;101484.88;;;-1.85
67515;BMP280;60646;55.802;37.032;2023-12-07T00:12:35;101490.19;;;-1.81
67515;BMP280;60646;55.802;37.032;2023-12-07T00:15:01;101498.13;;;-1.78
67515;BMP280;60646;55.802;37.032;2023-12-07T00:17:30;101474.31;;;-1.88
67515;BMP280;60646;55.802;37.032;2023-12-07T00:19:56;101489.84;;;-1.80
67515;BMP280;60646;55.802;37.032;2023-12-07T00:22:21;101481.56;;;-1.82
67515;BMP280;60646;55.802;37.032;2023-12-07T00:24:50;101498.59;;;-1.72
67515;BMP280;60646;55.802;37.032;2023-12-07T00:27:15;101500.44;;;-1.72
67515;BMP280;60646;55.802;37.032;2023-12-07T00:29:41;101494.75;;;-1.78
67515;BMP280;60646;55.802;37.032;2023-12-07T00:32:07;101492.13;;;-1.78
67515;BMP280;60646;55.802;37.032;2023-12-07T00:34:33;101511.06;;;-1.65
67515;BMP280;60646;55.802;37.032;2023-12-07T00:36:58;101502.34;;;-1.73
67515;BMP280;60646;55.802;37.032;2023-12-07T00:39:24;101501.63;;;-1.70
67515;BMP280;60646;55.802;37.032;2023-12-07T00:41:50;101505.06;;;-1.66
67515;BMP280;60646;55.802;37.032;2023-12-07T00:44:16;101505.84;;;-1.65
67515;BMP280;60646;55.802;37.032;2023-12-07T00:46:42;101484.94;;;-1.81
67515;BMP280;60646;55.802;37.032;2023-12-07T00:49:08;101504.19;;;-1.73
67515;BMP280;60646;55.802;37.032;2023-12-07T00:51:33;101502.34;;;-1.73
67515;BMP280;60646;55.802;37.032;2023-12-07T00:53:59;101511.41;;;-1.67
67515;BMP280;60646;55.802;37.032;2023-12-07T00:56:25;101522.31;;;-1.65
67515;BMP280;60646;55.802;37.032;2023-12-07T00:58:51;101509.06;;;-1.72
67515;BMP280;60646;55.802;37.032;2023-12-07T01:01:17;101527.94;;;-1.63
67515;BMP280;60646;55.802;37.032;2023-12-07T01:03:43;101513.63;;;-1.69
67515;BMP280;60646;55.802;37.032;2023-12-07T01:06:09;101514.31;;;-1.72
67515;BMP280;60646;55.802;37.032;2023-12-07T01:08:37;101507.56;;;-1.73
67515;BMP280;60646;55.802;37.032;2023-12-07T01:11:04;101525.34;;;-1.63
67515;BMP280;60646;55.802;37.032;2023-12-07T01:13:30;101502.94;;;-1.80
67515;BMP280;60646;55.802;37.032;2023-12-07T01:15:56;101540.09;;;-1.55
67515;BMP280;60646;55.802;37.032;2023-12-07T01:18:22;101536.31;;;-1.57
67515;BMP280;60646;55.802;37.032;2023-12-07T01:20:48;101512.81;;;-1.73
67515;BMP280;60646;55.802;37.032;2023-12-07T01:23:32;101540.78;;;-1.58
67515;BMP280;60646;55.802;37.032;2023-12-07T01:25:58;101527.88;;;-1.66
67515;BMP280;60646;55.802;37.032;2023-12-07T01:28:28;101522.59;;;-1.70
67515;BMP280;60646;55.802;37.032;2023-12-07T01:30:54;101546.03;;;-1.58
67515;BMP280;60646;55.802;37.032;2023-12-07T01:33:20;101537.75;;;-1.60
67515;BMP280;60646;55.802;37.032;2023-12-07T01:35:47;101516.38;;;-1.81
67515;BMP280;60646;55.802;37.032;2023-12-07T01:38:13;101540.66;;;-1.65
67515;BMP280;60646;55.802;37.032;2023-12-07T01:40:39;101538.38;;;-1.66
67515;BMP280;60646;55.802;37.032;2023-12-07T01:43:05;101534.88;;;-1.74
67515;BMP280;60646;55.802;37.032;2023-12-07T01:45:30;101562.56;;;-1.54
67515;BMP280;60646;55.802;37.032;2023-12-07T01:47:56;101559.53;;;-1.56
67515;BMP280;60646;55.802;37.032;2023-12-07T01:50:24;101521.34;;;-1.76
67515;BMP280;60646;55.802;37.032;2023-12-07T01:52:55;101527.13;;;-1.67
67515;BMP280;60646;55.802;37.032;2023-12-07T01:55:22;101516.09;;;-1.76
67515;BMP280;60646;55.802;37.032;2023-12-07T01:57:48;101530.84;;;-1.68
67515;BMP280;60646;55.802;37.032;2023-12-07T02:00:16;101546.44;;;-1.56
67515;BMP280;60646;55.802;37.032;2023-12-07T02:02:43;101540.28;;;-1.63
67515;BMP280;60646;55.802;37.032;2023-12-07T02:05:12;101533.06;;;-1.70
67515;BMP280;60646;55.802;37.032;2023-12-07T02:07:40;101552.72;;;-1.60
67515;BMP280;60646;55.802;37.032;2023-12-07T02:10:07;101566.97;;;-1.58
67515;BMP280;60646;55.802;37.032;2023-12-07T02:12:33;101565.06;;;-1.61
67515;BMP280;60646;55.802;37.032;2023-12-07T02:15:01;101552.50;;;-1.71
67515;BMP280;60646;55.802;37.032;2023-12-07T02:17:45;101550.56;;;-1.74
67515;BMP280;60646;55.802;37.032;2023-12-07T02:22:53;101549.31;;;-1.80
67515;BMP280;60646;55.802;37.032;2023-12-07T02:25:24;101563.81;;;-1.67
67515;BMP280;60646;55.802;37.032;2023-12-07T02:27:50;101549.31;;;-1.80
67515;BMP280;60646;55.802;37.032;2023-12-07T02:30:15;101559.88;;;-1.77
67515;BMP280;60646;55.802;37.032;2023-12-07T02:32:43;101561.88;;;-1.70
67515;BMP280;60646;55.802;37.032;2023-12-07T02:35:11;101553.47;;;-1.79
67515;BMP280;60646;55.802;37.032;2023-12-07T02:37:48;101558.38;;;-1.78
67515;BMP280;60646;55.802;37.032;2023-12-07T02:40:24;101580.09;;;-1.58
67515;BMP280;60646;55.802;37.032;2023-12-07T02:42:52;101559.03;;;-1.81
67515;BMP280;60646;55.802;37.032;2023-12-07T02:45:18;101570.34;;;-1.77
67515;BMP280;60646;55.802;37.032;2023-12-07T02:47:44;101572.75;;;-1.68
67515;BMP280;60646;55.802;37.032;2023-12-07T02:50:11;101577.25;;;-1.68
67515;BMP280;60646;55.802;37.032;2023-12-07T02:52:37;101600.72;;;-1.56
67515;BMP280;60646;55.802;37.032;2023-12-07T02:55:04;101578.69;;;-1.71
67515;BMP280;60646;55.802;37.032;2023-12-07T02:57:31;101608.22;;;-1.55
67515;BMP280;60646;55.802;37.032;2023-12-07T02:59:59;101586.28;;;-1.66
67515;BMP280;60646;55.802;37.032;2023-12-07T03:02:25;101568.84;;;-1.78
67515;BMP280;60646;55.802;37.032;2023-12-07T03:04:52;101566.50;;;-1.83
67515;BMP280;60646;55.802;37.032;2023-12-07T03:07:17;101572.19;;;-1.77
67515;BMP280;60646;55.802;37.032;2023-12-07T03:09:43;101579.38;;;-1.74
67515;BMP280;60646;55.802;37.032;2023-12-07T03:12:09;101589.59;;;-1.69
67515;BMP280;60646;55.802;37.032;2023-12-07T03:14:35;101600.53;;;-1.63
67515;BMP280;60646;55.802;37.032;2023-12-07T03:17:00;101596.75;;;-1.66
67515;BMP280;60646;55.802;37.032;2023-12-07T03:19:26;101601.25;;;-1.66
67515;BMP280;60646;55.802;37.032;2023-12-07T03:21:52;101604.28;;;-1.64
67515;BMP280;60646;55.802;37.032;2023-12-07T03:24:18;101598.97;;;-1.68
67515;BMP280;60646;55.802;37.032;2023-12-07T03:26:44;101603.38;;;-1.72
67515;BMP280;60646;55.802;37.032;2023-12-07T03:29:10;101644.63;;;-1.50
67515;BMP280;60646;55.802;37.032;2023-12-07T03:31:36;101622.28;;;-1.63
67515;BMP280;60646;55.802;37.032;2023-12-07T03:34:01;101616.19;;;-1.67
67515;BMP280;60646;55.802;37.032;2023-12-07T03:36:27;101637.88;;;-1.51
67515;BMP280;60646;55.802;37.032;2023-12-07T03:38:53;101614.66;;;-1.68
67515;BMP280;60646;55.802;37.032;2023-12-07T03:41:19;101622.97;;;-1.66
67515;BMP280;60646;55.802;37.032;2023-12-07T03:43:45;101616.97;;;-1.66
67515;BMP280;60646;55.802;37.032;2023-12-07T03:46:10;101615.44;;;-1.67
67515;BMP280;60646;55.802;37.032;2023-12-07T03:48:36;101643.53;;;-1.49
67515;BMP280;60646;55.802;37.032;2023-12-07T03:51:02;101607.09;;;-1.73
67515;BMP280;60646;55.802;37.032;2023-12-07T03:53:28;101620.66;;;-1.67
67515;BMP280;60646;55.802;37.032;2023-12-07T03:55:55;101647.09;;;-1.57
67515;BMP280;60646;55.802;37.032;2023-12-07T03:58:21;101614.41;;;-1.82
67515;BMP280;60646;55.802;37.032;2023-12-07T04:00:46;101632.19;;;-1.72
67515;BMP280;60646;55.802;37.032;2023-12-07T04:03:12;101633.72;;;-1.71
67515;BMP280;60646;55.802;37.032;2023-12-07T04:05:38;101623.41;;;-1.80
67515;BMP280;60646;55.802;37.032;2023-12-07T04:08:05;101640.13;;;-1.68
67515;BMP280;60646;55.802;37.032;2023-12-07T04:10:31;101660.47;;;-1.62
67515;BMP280;60646;55.802;37.032;2023-12-07T04:12:57;101648.31;;;-1.70
67515;BMP280;60646;55.802;37.032;2023-12-07T04:15:23;101645.97;;;-1.75
67515;BMP280;60646;55.802;37.032;2023-12-07T04:17:49;101635.34;;;-1.82
67515;BMP280;60646;55.802;37.032;2023-12-07T04:20:15;101657.97;;;-1.74
67515;BMP280;60646;55.802;37.032;2023-12-07T04:22:41;101663.72;;;-1.68
67515;BMP280;60646;55.802;37.032;2023-12-07T04:25:07;101661.00;;;-1.72
67515;BMP280;60646;55.802;37.032;2023-12-07T04:27:33;101631.38;;;-1.92
67515;BMP280;60646;55.802;37.032;2023-12-07T04:29:59;101623.00;;;-1.97
67515;BMP280;60646;55.802;37.032;2023-12-07T04:32:25;101654.41;;;-1.82
67515;BMP280;60646;55.802;37.032;2023-12-07T04:34:51;101651.72;;;-1.85
67515;BMP280;60646;55.802;37.032;2023-12-07T04:37:18;101644.78;;;-1.93
67515;BMP280;60646;55.802;37.032;2023-12-07T04:39:44;101656.09;;;-1.89
67515;BMP280;60646;55.802;37.032;2023-12-07T04:42:09;101644.72;;;-1.97
67515;BMP280;60646;55.802;37.032;2023-12-07T04:44:35;101639.28;;;-2.04
67515;BMP280;60646;55.802;37.032;2023-12-07T04:47:01;101646.81;;;-2.02
67515;BMP280;60646;55.802;37.032;2023-12-07T04:49:27;101653.22;;;-2.00
67515;BMP280;60646;55.802;37.032;2023-12-07T04:51:53;101674.69;;;-1.94
67515;BMP280;60646;55.802;37.032;2023-12-07T04:54:19;101653.41;;;-2.08
67515;BMP280;60646;55.802;37.032;2023-12-07T04:56:45;101685.22;;;-1.91
67515;BMP280;60646;55.802;37.032;2023-12-07T04:59:11;101688.22;;;-1.92
67515;BMP280;60646;55.802;37.032;2023-12-07T05:01:36;101656.28;;;-2.13
67515;BMP280;60646;55.802;37.032;2023-12-07T05:04:03;101686.69;;;-1.93
67515;BMP280;60646;55.802;37.032;2023-12-07T05:06:30;101658.88;;;-2.13
67515;BMP280;60646;55.802;37.032;2023-12-07T05:08:56;101658.06;;;-2.17
67515;BMP280;60646;55.802;37.032;2023-12-07T05:11:22;101647.75;;;-2.26
67515;BMP280;60646;55.802;37.032;2023-12-07T05:13:48;101665.91;;;-2.17
67515;BMP280;60646;55.802;37.032;2023-12-07T05:16:14;101703.06;;;-1.96
67515;BMP280;60646;55.802;37.032;2023-12-07T05:18:40;101665.06;;;-2.22
67515;BMP280;60646;55.802;37.032;2023-12-07T05:21:06;101667.34;;;-2.20
67515;BMP280;60646;55.802;37.032;2023-12-07T05:23:33;101690.81;;;-2.08
67515;BMP280;60646;55.802;37.032;2023-12-07T05:25:59;101678.75;;;-2.12
67515;BMP280;60646;55.802;37.032;2023-12-07T05:28:26;101685.06;;;-2.13
67515;BMP280;60646;55.802;37.032;2023-12-07T05:30:52;101661.81;;;-2.31
67515;BMP280;60646;55.802;37.032;2023-12-07T05:33:18;101693.69;;;-2.13
67515;BMP280;60646;55.802;37.032;2023-12-07T05:35:47;101705.34;;;-2.10
67515;BMP280;60646;55.802;37.032;2023-12-07T05:38:13;101708.75;;;-2.10
67515;BMP280;60646;55.802;37.032;2023-12-07T05:40:39;101719.03;;;-2.01
67515;BMP280;60646;55.802;37.032;2023-12-07T05:43:05;101695.13;;;-2.15
67515;BMP280;60646;55.802;37.032;2023-12-07T05:45:31;101720.81;;;-2.05
67515;BMP280;60646;55.802;37.032;2023-12-07T05:47:57;101718.53;;;-2.07
67515;BMP280;60646;55.802;37.032;2023-12-07T05:50:22;101699.94;;;-2.17
67515;BMP280;60646;55.802;37.032;2023-12-07T05:52:48;101716.16;;;-2.12
67515;BMP280;60646;55.802;37.032;2023-12-07T05:55:15;101679.63;;;-2.36
67515;BMP280;60646;55.802;37.032;2023-12-07T05:57:47;101731.38;;;-2.02
67515;BMP280;60646;55.802;37.032;2023-12-07T06:00:13;101717.00;;;-2.08
67515;BMP280;60646;55.802;37.032;2023-12-07T06:02:39;101723.69;;;-2.10
67515;BMP280;60646;55.802;37.032;2023-12-07T06:05:06;101717.59;;;-2.14
67515;BMP280;60646;55.802;37.032;2023-12-07T06:07:32;101725.22;;;-2.09
67515;BMP280;60646;55.802;37.032;2023-12-07T06:09:58;101747.16;;;-1.98
67515;BMP280;60646;55.802;37.032;2023-12-07T06:12:24;101725.47;;;-2.14
67515;BMP280;60646;55.802;37.032;2023-12-07T06:14:50;101718.84;;;-2.24
67515;BMP280;60646;55.802;37.032;2023-12-07T06:17:16;101705.13;;;-2.33
67515;BMP280;60646;55.802;37.032;2023-12-07T06:19:42;101723.00;;;-2.23
67515;BMP280;60646;55.802;37.032;2023-12-07T06:22:08;101733.63;;;-2.16
67515;BMP280;60646;55.802;37.032;2023-12-07T06:24:34;101753.72;;;-2.04
67515;BMP280;60646;55.802;37.032;2023-12-07T06:27:02;101730.69;;;-2.14
67515;BMP280;60646;55.802;37.032;2023-12-07T06:29:46;101735.94;;;-2.14
67515;BMP280;60646;55.802;37.032;2023-12-07T06:32:12;101731.78;;;-2.15
67515;BMP280;60646;55.802;37.032;2023-12-07T06:34:40;101732.53;;;-2.15
67515;BMP280;60646;55.802;37.032;2023-12-07T06:37:06;101723.09;;;-2.20
67515;BMP280;60646;55.802;37.032;2023-12-07T06:39:32;101727.63;;;-2.16
67515;BMP280;60646;55.802;37.032;2023-12-07T06:41:58;101715.03;;;-2.27
67515;BMP280;60646;55.802;37.032;2023-12-07T06:44:26;101749.25;;;-2.04
67515;BMP280;60646;55.802;37.032;2023-12-07T06:46:53;101715.03;;;-2.27
67515;BMP280;60646;55.802;37.032;2023-12-07T06:49:39;101745.88;;;-2.04
67515;BMP280;60646;55.802;37.032;2023-12-07T06:52:30;101732.47;;;-2.18
67515;BMP280;60646;55.802;37.032;2023-12-07T06:54:56;101735.31;;;-2.24
67515;BMP280;60646;55.802;37.032;2023-12-07T06:57:23;101727.03;;;-2.26
67515;BMP280;60646;55.802;37.032;2023-12-07T06:59:49;101743.59;;;-2.22
67515;BMP280;60646;55.802;37.032;2023-12-07T07:02:15;101746.44;;;-2.27
67515;BMP280;60646;55.802;37.032;2023-12-07T07:04:40;101720.75;;;-2.37
67515;BMP280;60646;55.802;37.032;2023-12-07T07:07:10;101759.06;;;-2.16
67515;BMP280;60646;55.802;37.032;2023-12-07T07:09:57;101759.38;;;-2.18
67515;BMP280;60646;55.802;37.032;2023-12-07T07:12:24;101733.41;;;-2.39
67515;BMP280;60646;55.802;37.032;2023-12-07T07:14:50;101742.94;;;-2.31
67515;BMP280;60646;55.802;37.032;2023-12-07T07:17:16;101725.78;;;-2.44
67515;BMP280;60646;55.802;37.032;2023-12-07T07:19:43;101762.34;;;-2.20
67515;BMP280;60646;55.802;37.032;2023-12-07T07:22:09;101763.88;;;-2.18
67515;BMP280;60646;55.802;37.032;2023-12-07T07:24:34;101736.03;;;-2.39
67515;BMP280;60646;55.802;37.032;2023-12-07T07:27:00;101735.25;;;-2.39
67515;BMP280;60646;55.802;37.032;2023-12-07T07:29:26;101755.41;;;-2.28
67515;BMP280;60646;55.802;37.032;2023-12-07T07:31:53;101759.75;;;-2.32
67515;BMP280;60646;55.802;37.032;2023-12-07T07:34:19;101765.88;;;-2.28
67515;BMP280;60646;55.802;37.032;2023-12-07T07:36:45;101739.97;;;-2.45
67515;BMP280;60646;55.802;37.032;2023-12-07T07:39:10;101778.69;;;-2.23
67515;BMP280;60646;55.802;37.032;2023-12-07T07:41:39;101739.09;;;-2.49
67515;BMP280;60646;55.802;37.032;2023-12-07T07:44:05;101764.13;;;-2.36
67515;BMP280;60646;55.802;37.032;2023-12-07T07:46:31;101756.78;;;-2.46
67515;BMP280;60646;55.802;37.032;2023-12-07T07:48:56;101761.34;;;-2.43
67515;BMP280;60646;55.802;37.032;2023-12-07T07:51:22;101753.72;;;-2.48
67515;BMP280;60646;55.802;37.032;2023-12-07T07:53:48;101758.50;;;-2.50
67515;BMP280;60646;55.802;37.032;2023-12-07T07:56:14;101768.34;;;-2.47
67515;BMP280;60646;55.802;37.032;2023-12-07T07:58:40;101776.59;;;-2.45
67515;BMP280;60646;55.802;37.032;2023-12-07T08:01:06;101758.00;;;-2.55
67515;BMP280;60646;55.802;37.032;2023-12-07T08:03:32;101752.69;;;-2.59
67515;BMP280;60646;55.802;37.032;2023-12-07T08:05:58;101771.19;;;-2.52
67515;BMP280;60646;55.802;37.032;2023-12-07T08:08:24;101778.78;;;-2.47
67515;BMP280;60646;55.802;37.032;2023-12-07T08:10:52;101778.13;;;-2.44
67515;BMP280;60646;55.802;37.032;2023-12-07T08:13:18;101749.31;;;-2.59
67515;BMP280;60646;55.802;37.032;2023-12-07T08:15:44;101772.47;;;-2.46
67515;BMP280;60646;55.802;37.032;2023-12-07T08:18:10;101760.72;;;-2.52
67515;BMP280;60646;55.802;37.032;2023-12-07T08:20:36;101749.41;;;-2.56
67515;BMP280;60646;55.802;37.032;2023-12-07T08:23:01;101762.41;;;-2.44
67515;BMP280;60646;55.802;37.032;2023-12-07T08:25:27;101746.88;;;-2.52
67515;BMP280;60646;55.802;37.032;2023-12-07T08:27:53;101772.66;;;-2.39
67515;BMP280;60646;55.802;37.032;2023-12-07T08:30:19;101776.25;;;-2.43
67515;BMP280;60646;55.802;37.032;2023-12-07T08:32:45;101771.34;;;-2.45
67515;BMP280;60646;55.802;37.032;2023-12-07T08:35:11;101773.97;;;-2.45
67515;BMP280;60646;55.802;37.032;2023-12-07T08:37:37;101790.28;;;-2.36
67515;BMP280;60646;55.802;37.032;2023-12-07T08:40:05;101757.94;;;-2.59
67515;BMP280;60646;55.802;37.032;2023-12-07T08:42:31;101770.31;;;-2.56
67515;BMP280;60646;55.802;37.032;2023-12-07T08:44:58;101775.75;;;-2.49
67515;BMP280;60646;55.802;37.032;2023-12-07T08:47:23;101748.31;;;-2.67
67515;BMP280;60646;55.802;37.032;2023-12-07T08:49:53;101769.31;;;-2.51
67515;BMP280;60646;55.802;37.032;2023-12-07T08:52:19;101783.78;;;-2.42
67515;BMP280;60646;55.802;37.032;2023-12-07T08:54:45;101767.88;;;-2.49
67515;BMP280;60646;55.802;37.032;2023-12-07T08:57:11;101765.50;;;-2.54
67515;BMP280;60646;55.802;37.032;2023-12-07T08:59:37;101763.88;;;-2.46
67515;BMP280;60646;55.802;37.032;2023-12-07T09:02:02;101746.34;;;-2.58
67515;BMP280;60646;55.802;37.032;2023-12-07T09:04:28;101707.84;;;-2.85
67515;BMP280;60646;55.802;37.032;2023-12-07T09:06:54;101774.94;;;-2.37
67515;BMP280;60646;55.802;37.032;2023-12-07T09:09:20;101753.28;;;-2.50
67515;BMP280;60646;55.802;37.032;2023-12-07T09:11:47;101748.97;;;-2.58
67515;BMP280;60646;55.802;37.032;2023-12-07T09:14:13;101766.56;;;-2.43
67515;BMP280;60646;55.802;37.032;2023-12-07T09:16:45;101778.31;;;-2.37
67515;BMP280;60646;55.802;37.032;2023-12-07T09:19:12;101773.09;;;-2.37
67515;BMP280;60646;55.802;37.032;2023-12-07T09:21:38;101766.81;;;-2.48
67515;BMP280;60646;55.802;37.032;2023-12-07T09:24:04;101756.81;;;-2.58
67515;BMP280;60646;55.802;37.032;2023-12-07T09:26:32;101756.91;;;-2.67
67515;BMP280;60646;55.802;37.032;2023-12-07T09:28:58;101759.78;;;-2.59
67515;BMP280;60646;55.802;37.032;2023-12-07T09:31:24;101733.13;;;-2.77
67515;BMP280;60646;55.802;37.032;2023-12-07T09:33:50;101755.84;;;-2.66
67515;BMP280;60646;55.802;37.032;2023-12-07T09:36:18;101761.38;;;-2.67
67515;BMP280;60646;55.802;37.032;2023-12-07T09:38:44;101766.63;;;-2.67
67515;BMP280;60646;55.802;37.032;2023-12-07T09:41:29;101757.72;;;-2.78
67515;BMP280;60646;55.802;37.032;2023-12-07T09:43:55;101749.03;;;-2.82
67515;BMP280;60646;55.802;37.032;2023-12-07T09:46:21;101779.06;;;-2.64
67515;BMP280;60646;55.802;37.032;2023-12-07T09:48:49;101787.34;;;-2.62
67515;BMP280;60646;55.802;37.032;2023-12-07T09:51:15;101737.03;;;-2.83
67515;BMP280;60646;55.802;37.032;2023-12-07T09:53:42;101777.66;;;-2.62
67515;BMP280;60646;55.802;37.032;2023-12-07T09:56:09;101743.44;;;-2.81
67515;BMP280;60646;55.802;37.032;2023-12-07T09:58:36;101753.34;;;-2.74
67515;BMP280;60646;55.802;37.032;2023-12-07T10:01:02;101751.16;;;-2.72
67515;BMP280;60646;55.802;37.032;2023-12-07T10:03:28;101757.28;;;-2.68
67515;BMP280;60646;55.802;37.032;2023-12-07T10:05:58;101779.72;;;-2.55
67515;BMP280;60646;55.802;37.032;2023-12-07T10:08:31;101784.59;;;-2.53
67515;BMP280;60646;55.802;37.032;2023-12-07T10:11:08;101764.84;;;-2.63
67515;BMP280;60646;55.802;37.032;2023-12-07T10:13:36;101769.34;;;-2.64
67515;BMP280;60646;55.802;37.032;2023-12-07T10:16:20;101734.53;;;-2.80
67515;BMP280;60646;55.802;37.032;2023-12-07T10:18:45;101775.47;;;-2.59
67515;BMP280;60646;55.802;37.032;2023-12-07T10:21:12;101789.03;;;-2.42
67515;BMP280;60646;55.802;37.032;2023-12-07T10:23:39;101767.03;;;-2.53
67515;BMP280;60646;55.802;37.032;2023-12-07T10:26:06;101790.66;;;-2.37
67515;BMP280;60646;55.802;37.032;2023-12-07T10:28:36;101779.81;;;-2.36
67515;BMP280;60646;55.802;37.032;2023-12-07T10:31:08;101764.63;;;-2.46
67515;BMP280;60646;55.802;37.032;2023-12-07T10:33:35;101765.72;;;-2.47
67515;BMP280;60646;55.802;37.032;2023-12-07T10:36:03;101767.56;;;-2.47
67515;BMP280;60646;55.802;37.032;2023-12-07T10:38:29;101792.91;;;-2.36
67515;BMP280;60646;55.802;37.032;2023-12-07T10:41:05;101764.88;;;-2.51
67515;BMP280;60646;55.802;37.032;2023-12-07T10:43:36;101772.88;;;-2.44
67515;BMP280;60646;55.802;37.032;2023-12-07T10:46:04;101747.03;;;-2.61
67515;BMP280;60646;55.802;37.032;2023-12-07T10:48:32;101755.31;;;-2.59
67515;BMP280;60646;55.802;37.032;2023-12-07T10:51:00;101798.25;;;-2.32
67515;BMP280;60646;55.802;37.032;2023-12-07T10:53:34;101799.44;;;-2.30
67515;BMP280;60646;55.802;37.032;2023-12-07T10:56:10;101772.03;;;-2.48
67515;BMP280;60646;55.802;37.032;2023-12-07T10:58:37;101779.41;;;-2.38
67515;BMP280;60646;55.802;37.032;2023-12-07T11:01:07;101769.41;;;-2.48
67515;BMP280;60646;55.802;37.032;2023-12-07T11:03:33;101770.94;;;-2.47
67515;BMP280;60646;55.802;37.032;2023-12-07T11:06:00;101778.88;;;-2.43
67515;BMP280;60646;55.802;37.032;2023-12-07T11:11:06;101781.81;;;-2.45
67515;BMP280;60646;55.802;37.032;2023-12-07T11:13:37;101787.25;;;-2.38
67515;BMP280;60646;55.802;37.032;2023-12-07T11:16:04;101765.94;;;-2.52
67515;BMP280;60646;55.802;37.032;2023-12-07T11:18:30;101725.16;;;-2.81
67515;BMP280;60646;55.802;37.032;2023-12-07T11:20:56;101730.59;;;-2.86
67515;BMP280;60646;55.802;37.032;2023-12-07T11:23:23;101777.59;;;-2.49
67515;BMP280;60646;55.802;37.032;2023-12-07T11:25:51;101779.44;;;-2.50
67515;BMP280;60646;55.802;37.032;2023-12-07T11:28:18;101760.41;;;-2.63
67515;BMP280;60646;55.802;37.032;2023-12-07T11:30:47;101783.25;;;-2.47
67515;BMP280;60646;55.802;37.032;2023-12-07T11:33:15;101750.50;;;-2.69
67515;BMP280;60646;55.802;37.032;2023-12-07T11:38:26;101759.63;;;-2.63
67515;BMP280;60646;55.802;37.032;2023-12-07T11:40:54;101793.16;;;-2.41
67515;BMP280;60646;55.802;37.032;2023-12-07T11:43:36;101755.31;;;-2.71
67515;BMP280;60646;55.802;37.032;2023-12-07T11:46:04;101782.97;;;-2.58
67515;BMP280;60646;55.802;37.032;2023-12-07T11:48:30;101779.94;;;-2.60
67515;BMP280;60646;55.802;37.032;2023-12-07T11:51:00;101763.81;;;-2.74
67515;BMP280;60646;55.802;37.032;2023-12-07T11:53:36;101803.00;;;-2.50
67515;BMP280;60646;55.802;37.032;2023-12-07T11:56:04;101794.09;;;-2.61
67515;BMP280;60646;55.802;37.032;2023-12-07T11:58:33;101800.88;;;-2.60
67515;BMP280;60646;55.802;37.032;2023-12-07T12:01:00;101770.59;;;-2.85
67515;BMP280;60646;55.802;37.032;2023-12-07T12:03:27;101805.22;;;-2.64
67515;BMP280;60646;55.802;37.032;2023-12-07T12:05:54;101773.22;;;-2.85
67515;BMP280;60646;55.802;37.032;2023-12-07T12:08:20;101777.59;;;-2.89
67515;BMP280;60646;55.802;37.032;2023-12-07T12:10:48;101741.03;;;-3.14
67515;BMP280;60646;55.802;37.032;2023-12-07T12:13:15;101772.69;;;-3.03
67515;BMP280;60646;55.802;37.032;2023-12-07T12:15:42;101783.91;;;-3.03
67515;BMP280;60646;55.802;37.032;2023-12-07T12:18:09;101770.19;;;-3.12
67515;BMP280;60646;55.802;37.032;2023-12-07T12:20:35;101771.50;;;-3.18
67515;BMP280;60646;55.802;37.032;2023-12-07T12:23:01;101773.69;;;-3.20
67515;BMP280;60646;55.802;37.032;2023-12-07T12:25:29;101781.09;;;-3.22
67515;BMP280;60646;55.802;37.032;2023-12-07T12:28:03;101759.72;;;-3.36
67515;BMP280;60646;55.802;37.032;2023-12-07T12:30:30;101812.44;;;-3.10
67515;BMP280;60646;55.802;37.032;2023-12-07T12:32:56;101789.78;;;-3.30
67515;BMP280;60646;55.802;37.032;2023-12-07T12:35:23;101782.16;;;-3.35
67515;BMP280;60646;55.802;37.032;2023-12-07T12:37:49;101796.09;;;-3.31
67515;BMP280;60646;55.802;37.032;2023-12-07T12:40:18;101783.34;;;-3.44
67515;BMP280;60646;55.802;37.032;2023-12-07T12:43:02;101805.44;;;-3.30
67515;BMP280;60646;55.802;37.032;2023-12-07T12:45:28;101789.53;;;-3.49
67515;BMP280;60646;55.802;37.032;2023-12-07T12:48:12;101819.81;;;-3.36
67515;BMP280;60646;55.802;37.032;2023-12-07T12:50:40;101822.66;;;-3.41
67515;BMP280;60646;55.802;37.032;2023-12-07T12:53:10;101823.41;;;-3.40
67515;BMP280;60646;55.802;37.032;2023-12-07T12:55:40;101820.38;;;-3.42
67515;BMP280;60646;55.802;37.032;2023-12-07T12:58:07;101780.13;;;-3.74
67515;BMP280;60646;55.802;37.032;2023-12-07T13:00:34;101795.25;;;-3.68
67515;BMP280;60646;55.802;37.032;2023-12-07T13:03:04;101822.59;;;-3.53
67515;BMP280;60646;55.802;37.032;2023-12-07T13:05:31;101791.09;;;-3.81
67515;BMP280;60646;55.802;37.032;2023-12-07T13:08:01;101775.88;;;-3.91
67515;BMP280;60646;55.802;37.032;2023-12-07T13:10:28;101801.91;;;-3.70
67515;BMP280;60646;55.802;37.032;2023-12-07T13:12:54;101801.44;;;-3.72
67515;BMP280;60646;55.802;37.032;2023-12-07T13:15:22;101825.22;;;-3.65
67515;BMP280;60646;55.802;37.032;2023-12-07T13:17:49;101803.38;;;-3.81
67515;BMP280;60646;55.802;37.032;2023-12-07T13:20:15;101783.72;;;-4.00
67515;BMP280;60646;55.802;37.032;2023-12-07T13:22:43;101830.81;;;-3.75
67515;BMP280;60646;55.802;37.032;2023-12-07T13:25:12;101827.53;;;-3.84
67515;BMP280;60646;55.802;37.032;2023-12-07T13:27:41;101830.38;;;-3.77
67515;BMP280;60646;55.802;37.032;2023-12-07T13:30:09;101839.28;;;-3.78
67515;BMP280;60646;55.802;37.032;2023-12-07T13:32:36;101807.00;;;-3.95
67515;BMP280;60646;55.802;37.032;2023-12-07T13:35:04;101800.03;;;-4.03
67515;BMP280;60646;55.802;37.032;2023-12-07T13:37:31;101814.41;;;-3.97
67515;BMP280;60646;55.802;37.032;2023-12-07T13:39:59;101798.16;;;-4.14
67515;BMP280;60646;55.802;37.032;2023-12-07T13:42:27;101839.91;;;-3.94
67515;BMP280;60646;55.802;37.032;2023-12-07T13:44:57;101814.69;;;-4.10
67515;BMP280;60646;55.802;37.032;2023-12-07T13:47:24;101832.25;;;-3.99
67515;BMP280;60646;55.802;37.032;2023-12-07T13:50:04;101826.13;;;-4.03
67515;BMP280;60646;55.802;37.032;2023-12-07T13:52:31;101807.69;;;-4.18